sensor_id;sensor_type;location;lat;lon;timestamp;P1;durP1;ratioP1;P2;durP2;ratioP2
17528;SDS011;8882;53.192;8.184;2022-12-13T05:32:27;51.80;;;23.10;;
17528;SDS011;8882;53.192;8.184;2022-12-13T05:34:55;52.67;;;22.47;;
17528;SDS011;8882;53.192;8.184;2022-12-13T05:37:20;58.27;;;22.07;;
17528;SDS011;8882;53.192;8.184;2022-12-13T05:39:46;44.53;;;20.63;;
17528;SDS011;8882;53.192;8.184;2022-12-13T05:42:11;51.90;;;20.57;;
17528;SDS011;8882;53.192;8.184;2022-12-13T05:44:36;47.23;;;20.00;;
17528;SDS011;8882;53.192;8.184;2022-12-13T05:47:02;49.53;;;21.50;;
17528;SDS011;8882;53.192;8.184;2022-12-13T05:49:27;51.60;;;19.60;;
17528;SDS011;8882;53.192;8.184;2022-12-13T05:51:53;46.23;;;19.30;;
17528;SDS011;8882;53.192;8.184;2022-12-13T05:54:18;46.00;;;19.60;;
17528;SDS011;8882;53.192;8.184;2022-12-13T05:56:44;43.03;;;18.87;;
17528;SDS011;8882;53.192;8.184;2022-12-13T05:59:09;47.10;;;21.30;;
17528;SDS011;8882;53.192;8.184;2022-12-13T06:01:35;41.53;;;20.20;;
17528;SDS011;8882;53.192;8.184;2022-12-13T06:04:01;44.77;;;19.87;;
17528;SDS011;8882;53.192;8.184;2022-12-13T06:06:26;38.30;;;18.57;;
17528;SDS011;8882;53.192;8.184;2022-12-13T06:08:52;46.87;;;19.93;;
17528;SDS011;8882;53.192;8.184;2022-12-13T06:11:17;41.63;;;19.90;;
17528;SDS011;8882;53.192;8.184;2022-12-13T06:13:43;37.03;;;19.13;;
17528;SDS011;8882;53.192;8.184;2022-12-13T06:16:09;42.03;;;20.00;;
17528;SDS011;8882;53.192;8.184;2022-12-13T06:18:36;40.10;;;18.93;;
17528;SDS011;8882;53.192;8.184;2022-12-13T06:21:03;41.23;;;19.10;;
17528;SDS011;8882;53.192;8.184;2022-12-13T06:23:30;35.03;;;18.33;;
17528;SDS011;8882;53.192;8.184;2022-12-13T06:25:57;37.13;;;17.63;;
17528;SDS011;8882;53.192;8.184;2022-12-13T06:28:23;39.40;;;18.67;;
17528;SDS011;8882;53.192;8.184;2022-12-13T06:30:48;33.13;;;18.00;;
17528;SDS011;8882;53.192;8.184;2022-12-13T06:33:17;41.80;;;19.47;;
17528;SDS011;8882;53.192;8.184;2022-12-13T06:35:43;41.13;;;19.03;;
17528;SDS011;8882;53.192;8.184;2022-12-13T06:38:09;43.67;;;19.60;;
17528;SDS011;8882;53.192;8.184;2022-12-13T06:40:35;39.20;;;19.30;;
17528;SDS011;8882;53.192;8.184;2022-12-13T06:43:00;40.20;;;17.10;;
17528;SDS011;8882;53.192;8.184;2022-12-13T06:45:26;37.80;;;19.40;;
17528;SDS011;8882;53.192;8.184;2022-12-13T06:47:51;43.70;;;17.77;;
17528;SDS011;8882;53.192;8.184;2022-12-13T06:50:17;39.87;;;19.10;;
17528;SDS011;8882;53.192;8.184;2022-12-13T06:52:44;35.43;;;18.93;;
17528;SDS011;8882;53.192;8.184;2022-12-13T06:55:10;37.70;;;19.63;;
17528;SDS011;8882;53.192;8.184;2022-12-13T06:57:36;39.83;;;18.93;;
17528;SDS011;8882;53.192;8.184;2022-12-13T07:00:02;49.67;;;20.47;;
17528;SDS011;8882;53.192;8.184;2022-12-13T07:02:29;45.30;;;21.07;;
17528;SDS011;8882;53.192;8.184;2022-12-13T07:04:54;43.50;;;19.70;;
17528;SDS011;8882;53.192;8.184;2022-12-13T07:07:20;40.67;;;20.40;;
17528;SDS011;8882;53.192;8.184;2022-12-13T07:09:46;42.07;;;18.03;;
17528;SDS011;8882;53.192;8.184;2022-12-13T07:12:11;42.47;;;19.47;;
17528;SDS011;8882;53.192;8.184;2022-12-13T07:14:37;38.50;;;19.60;;
17528;SDS011;8882;53.192;8.184;2022-12-13T07:17:02;41.83;;;19.00;;
17528;SDS011;8882;53.192;8.184;2022-12-13T07:19:28;41.70;;;20.10;;
17528;SDS011;8882;53.192;8.184;2022-12-13T07:21:54;38.40;;;19.00;;
17528;SDS011;8882;53.192;8.184;2022-12-13T07:24:20;36.80;;;18.97;;
17528;SDS011;8882;53.192;8.184;2022-12-13T07:26:45;36.47;;;18.63;;
17528;SDS011;8882;53.192;8.184;2022-12-13T07:29:11;38.17;;;18.87;;
17528;SDS011;8882;53.192;8.184;2022-12-13T07:31:36;44.67;;;19.30;;
17528;SDS011;8882;53.192;8.184;2022-12-13T07:34:02;42.50;;;19.17;;
17528;SDS011;8882;53.192;8.184;2022-12-13T07:36:28;33.37;;;17.60;;
17528;SDS011;8882;53.192;8.184;2022-12-13T07:38:54;47.87;;;20.93;;
17528;SDS011;8882;53.192;8.184;2022-12-13T07:41:21;48.50;;;19.00;;
17528;SDS011;8882;53.192;8.184;2022-12-13T07:43:47;34.73;;;18.73;;
17528;SDS011;8882;53.192;8.184;2022-12-13T07:46:13;46.13;;;20.33;;
17528;SDS011;8882;53.192;8.184;2022-12-13T07:48:39;42.97;;;20.37;;
17528;SDS011;8882;53.192;8.184;2022-12-13T07:51:06;38.00;;;18.97;;
17528;SDS011;8882;53.192;8.184;2022-12-13T07:53:34;40.37;;;18.47;;
17528;SDS011;8882;53.192;8.184;2022-12-13T07:56:01;36.77;;;18.40;;
17528;SDS011;8882;53.192;8.184;2022-12-13T07:58:30;37.23;;;17.57;;
17528;SDS011;8882;53.192;8.184;2022-12-13T08:01:00;37.60;;;17.20;;
17528;SDS011;8882;53.192;8.184;2022-12-13T08:03:31;34.50;;;18.07;;
17528;SDS011;8882;53.192;8.184;2022-12-13T08:06:00;38.37;;;18.93;;
17528;SDS011;8882;53.192;8.184;2022-12-13T08:08:28;38.37;;;18.37;;
17528;SDS011;8882;53.192;8.184;2022-12-13T08:10:54;36.67;;;17.70;;
17528;SDS011;8882;53.192;8.184;2022-12-13T08:13:19;36.50;;;18.80;;
17528;SDS011;8882;53.192;8.184;2022-12-13T08:15:45;36.13;;;17.97;;
17528;SDS011;8882;53.192;8.184;2022-12-13T08:18:10;35.53;;;19.10;;
17528;SDS011;8882;53.192;8.184;2022-12-13T08:20:36;38.40;;;18.27;;
17528;SDS011;8882;53.192;8.184;2022-12-13T08:23:01;34.57;;;18.13;;
17528;SDS011;8882;53.192;8.184;2022-12-13T08:25:27;41.20;;;18.87;;
17528;SDS011;8882;53.192;8.184;2022-12-13T08:27:53;39.90;;;18.60;;
17528;SDS011;8882;53.192;8.184;2022-12-13T08:30:19;41.37;;;18.57;;
17528;SDS011;8882;53.192;8.184;2022-12-13T08:32:44;37.93;;;18.47;;
17528;SDS011;8882;53.192;8.184;2022-12-13T08:35:10;38.03;;;18.83;;
17528;SDS011;8882;53.192;8.184;2022-12-13T08:37:35;37.20;;;17.60;;
17528;SDS011;8882;53.192;8.184;2022-12-13T08:40:01;42.87;;;20.97;;
17528;SDS011;8882;53.192;8.184;2022-12-13T08:42:28;40.50;;;20.97;;
17528;SDS011;8882;53.192;8.184;2022-12-13T08:44:53;36.63;;;18.47;;
17528;SDS011;8882;53.192;8.184;2022-12-13T08:47:20;39.20;;;18.67;;
17528;SDS011;8882;53.192;8.184;2022-12-13T08:49:47;41.10;;;19.57;;
17528;SDS011;8882;53.192;8.184;2022-12-13T08:52:12;34.43;;;18.13;;
17528;SDS011;8882;53.192;8.184;2022-12-13T08:54:38;37.63;;;19.17;;
17528;SDS011;8882;53.192;8.184;2022-12-13T08:57:03;33.37;;;18.53;;
17528;SDS011;8882;53.192;8.184;2022-12-13T08:59:29;39.77;;;18.70;;
17528;SDS011;8882;53.192;8.184;2022-12-13T09:01:55;43.23;;;18.57;;
17528;SDS011;8882;53.192;8.184;2022-12-13T09:04:20;38.37;;;18.70;;
17528;SDS011;8882;53.192;8.184;2022-12-13T09:06:46;38.93;;;19.33;;
17528;SDS011;8882;53.192;8.184;2022-12-13T09:09:11;39.67;;;19.07;;
17528;SDS011;8882;53.192;8.184;2022-12-13T09:11:38;40.67;;;19.27;;
17528;SDS011;8882;53.192;8.184;2022-12-13T09:14:04;42.67;;;19.67;;
17528;SDS011;8882;53.192;8.184;2022-12-13T09:16:31;39.43;;;19.67;;
17528;SDS011;8882;53.192;8.184;2022-12-13T09:19:00;37.60;;;19.30;;
17528;SDS011;8882;53.192;8.184;2022-12-13T09:21:26;38.37;;;18.53;;
17528;SDS011;8882;53.192;8.184;2022-12-13T09:23:51;37.17;;;17.77;;
17528;SDS011;8882;53.192;8.184;2022-12-13T09:26:17;33.27;;;17.37;;
17528;SDS011;8882;53.192;8.184;2022-12-13T09:28:43;32.23;;;16.27;;
17528;SDS011;8882;53.192;8.184;2022-12-13T09:31:09;35.83;;;17.70;;
17528;SDS011;8882;53.192;8.184;2022-12-13T09:33:37;31.67;;;15.83;;
17528;SDS011;8882;53.192;8.184;2022-12-13T09:36:03;31.63;;;17.07;;
17528;SDS011;8882;53.192;8.184;2022-12-13T09:38:31;33.47;;;16.40;;
17528;SDS011;8882;53.192;8.184;2022-12-13T09:40:57;34.07;;;16.50;;
17528;SDS011;8882;53.192;8.184;2022-12-13T09:43:31;34.50;;;17.23;;
17528;SDS011;8882;53.192;8.184;2022-12-13T09:45:59;38.60;;;19.07;;
17528;SDS011;8882;53.192;8.184;2022-12-13T09:48:29;42.37;;;19.80;;
17528;SDS011;8882;53.192;8.184;2022-12-13T09:50:54;39.47;;;18.60;;
17528;SDS011;8882;53.192;8.184;2022-12-13T09:53:20;36.10;;;18.13;;
17528;SDS011;8882;53.192;8.184;2022-12-13T09:55:46;37.80;;;17.37;;
17528;SDS011;8882;53.192;8.184;2022-12-13T09:58:17;36.10;;;18.40;;
17528;SDS011;8882;53.192;8.184;2022-12-13T10:00:54;35.80;;;18.30;;
17528;SDS011;8882;53.192;8.184;2022-12-13T10:03:21;36.07;;;18.33;;
17528;SDS011;8882;53.192;8.184;2022-12-13T10:06:11;41.87;;;20.33;;
17528;SDS011;8882;53.192;8.184;2022-12-13T10:08:39;41.83;;;18.97;;
17528;SDS011;8882;53.192;8.184;2022-12-13T10:11:13;38.63;;;19.80;;
17528;SDS011;8882;53.192;8.184;2022-12-13T10:16:41;40.73;;;18.90;;
17528;SDS011;8882;53.192;8.184;2022-12-13T10:19:19;40.83;;;18.57;;
17528;SDS011;8882;53.192;8.184;2022-12-13T10:22:00;39.13;;;19.07;;
17528;SDS011;8882;53.192;8.184;2022-12-13T10:30:03;40.97;;;19.47;;
17528;SDS011;8882;53.192;8.184;2022-12-13T10:32:32;40.07;;;19.17;;
17528;SDS011;8882;53.192;8.184;2022-12-13T10:35:10;37.50;;;18.97;;
17528;SDS011;8882;53.192;8.184;2022-12-13T10:37:44;46.43;;;20.10;;
17528;SDS011;8882;53.192;8.184;2022-12-13T10:40:22;45.30;;;20.40;;
17528;SDS011;8882;53.192;8.184;2022-12-13T10:51:15;50.27;;;20.47;;
17528;SDS011;8882;53.192;8.184;2022-12-13T10:53:44;45.20;;;22.17;;
17528;SDS011;8882;53.192;8.184;2022-12-13T10:56:16;40.97;;;20.33;;
17528;SDS011;8882;53.192;8.184;2022-12-13T10:58:43;45.47;;;19.73;;
17528;SDS011;8882;53.192;8.184;2022-12-13T11:04:04;43.70;;;17.90;;
17528;SDS011;8882;53.192;8.184;2022-12-13T11:06:45;45.07;;;19.80;;
17528;SDS011;8882;53.192;8.184;2022-12-13T11:11:51;39.93;;;18.63;;
17528;SDS011;8882;53.192;8.184;2022-12-13T11:14:18;40.00;;;18.00;;
17528;SDS011;8882;53.192;8.184;2022-12-13T11:16:53;41.03;;;19.07;;
17528;SDS011;8882;53.192;8.184;2022-12-13T11:19:35;38.40;;;18.17;;
17528;SDS011;8882;53.192;8.184;2022-12-13T11:22:03;46.00;;;19.90;;
17528;SDS011;8882;53.192;8.184;2022-12-13T11:24:30;44.83;;;19.73;;
17528;SDS011;8882;53.192;8.184;2022-12-13T11:27:03;43.20;;;19.00;;
17528;SDS011;8882;53.192;8.184;2022-12-13T11:32:22;45.93;;;19.67;;
17528;SDS011;8882;53.192;8.184;2022-12-13T11:35:05;44.80;;;18.83;;
17528;SDS011;8882;53.192;8.184;2022-12-13T11:37:43;43.60;;;19.17;;
17528;SDS011;8882;53.192;8.184;2022-12-13T11:40:47;44.43;;;20.17;;
17528;SDS011;8882;53.192;8.184;2022-12-13T11:43:22;42.07;;;20.60;;
17528;SDS011;8882;53.192;8.184;2022-12-13T11:45:54;48.43;;;20.43;;
17528;SDS011;8882;53.192;8.184;2022-12-13T11:51:07;54.03;;;21.83;;
17528;SDS011;8882;53.192;8.184;2022-12-13T11:59:35;49.30;;;21.80;;
17528;SDS011;8882;53.192;8.184;2022-12-13T12:01:35;52.13;;;23.00;;
17528;SDS011;8882;53.192;8.184;2022-12-13T12:04:22;58.63;;;24.13;;
17528;SDS011;8882;53.192;8.184;2022-12-13T12:09:39;53.27;;;21.97;;
17528;SDS011;8882;53.192;8.184;2022-12-13T12:12:25;55.50;;;22.40;;
17528;SDS011;8882;53.192;8.184;2022-12-13T12:17:24;61.17;;;22.70;;
17528;SDS011;8882;53.192;8.184;2022-12-13T12:19:54;52.80;;;21.47;;
17528;SDS011;8882;53.192;8.184;2022-12-13T12:25:11;51.03;;;21.93;;
17528;SDS011;8882;53.192;8.184;2022-12-13T12:28:07;60.87;;;22.43;;
17528;SDS011;8882;53.192;8.184;2022-12-13T12:31:01;52.77;;;22.00;;
17528;SDS011;8882;53.192;8.184;2022-12-13T12:33:41;62.03;;;22.63;;
17528;SDS011;8882;53.192;8.184;2022-12-13T12:36:37;54.27;;;23.07;;
17528;SDS011;8882;53.192;8.184;2022-12-13T12:39:31;53.20;;;23.50;;
17528;SDS011;8882;53.192;8.184;2022-12-13T12:42:45;57.07;;;22.20;;
17528;SDS011;8882;53.192;8.184;2022-12-13T12:48:29;54.20;;;23.60;;
17528;SDS011;8882;53.192;8.184;2022-12-13T12:51:23;59.30;;;23.73;;
17528;SDS011;8882;53.192;8.184;2022-12-13T12:54:18;58.97;;;22.37;;
17528;SDS011;8882;53.192;8.184;2022-12-13T12:57:19;62.33;;;24.97;;
17528;SDS011;8882;53.192;8.184;2022-12-13T13:00:09;61.37;;;23.70;;
17528;SDS011;8882;53.192;8.184;2022-12-13T13:05:44;60.37;;;23.90;;
17528;SDS011;8882;53.192;8.184;2022-12-13T13:10:51;62.60;;;25.43;;
17528;SDS011;8882;53.192;8.184;2022-12-13T13:13:43;68.70;;;25.37;;
17528;SDS011;8882;53.192;8.184;2022-12-13T13:19:02;57.83;;;23.70;;
17528;SDS011;8882;53.192;8.184;2022-12-13T13:26:33;66.47;;;24.07;;
17528;SDS011;8882;53.192;8.184;2022-12-13T13:34:29;64.27;;;24.67;;
17528;SDS011;8882;53.192;8.184;2022-12-13T13:36:57;60.20;;;24.27;;
17528;SDS011;8882;53.192;8.184;2022-12-13T13:47:13;51.60;;;22.63;;
17528;SDS011;8882;53.192;8.184;2022-12-13T13:52:24;64.67;;;23.83;;
17528;SDS011;8882;53.192;8.184;2022-12-13T13:57:55;64.87;;;23.37;;
17528;SDS011;8882;53.192;8.184;2022-12-13T14:09:42;57.60;;;23.37;;
17528;SDS011;8882;53.192;8.184;2022-12-13T14:12:38;55.07;;;23.70;;
17528;SDS011;8882;53.192;8.184;2022-12-13T14:15:35;53.90;;;22.57;;
17528;SDS011;8882;53.192;8.184;2022-12-13T14:18:31;62.67;;;22.87;;
17528;SDS011;8882;53.192;8.184;2022-12-13T14:21:31;56.43;;;22.07;;
17528;SDS011;8882;53.192;8.184;2022-12-13T14:29:57;62.10;;;24.90;;
17528;SDS011;8882;53.192;8.184;2022-12-13T14:32:24;55.20;;;23.70;;
17528;SDS011;8882;53.192;8.184;2022-12-13T14:34:55;58.60;;;23.30;;
17528;SDS011;8882;53.192;8.184;2022-12-13T14:37:25;54.97;;;22.10;;
17528;SDS011;8882;53.192;8.184;2022-12-13T14:39:54;63.60;;;27.60;;
17528;SDS011;8882;53.192;8.184;2022-12-13T14:42:30;51.47;;;22.53;;
17528;SDS011;8882;53.192;8.184;2022-12-13T14:45:13;60.97;;;25.20;;
17528;SDS011;8882;53.192;8.184;2022-12-13T14:47:45;66.67;;;24.57;;
17528;SDS011;8882;53.192;8.184;2022-12-13T14:50:12;77.63;;;32.03;;
17528;SDS011;8882;53.192;8.184;2022-12-13T14:52:42;59.87;;;26.33;;
17528;SDS011;8882;53.192;8.184;2022-12-13T14:57:54;63.47;;;25.27;;
17528;SDS011;8882;53.192;8.184;2022-12-13T15:03:06;57.00;;;25.50;;
17528;SDS011;8882;53.192;8.184;2022-12-13T15:08:01;58.47;;;24.17;;
17528;SDS011;8882;53.192;8.184;2022-12-13T15:13:02;50.27;;;20.57;;
17528;SDS011;8882;53.192;8.184;2022-12-13T15:15:30;52.17;;;23.27;;
17528;SDS011;8882;53.192;8.184;2022-12-13T15:18:30;56.97;;;22.73;;
17528;SDS011;8882;53.192;8.184;2022-12-13T15:20:50;62.67;;;29.93;;
17528;SDS011;8882;53.192;8.184;2022-12-13T15:23:20;59.63;;;26.60;;
17528;SDS011;8882;53.192;8.184;2022-12-13T15:28:39;60.07;;;24.40;;
17528;SDS011;8882;53.192;8.184;2022-12-13T15:31:07;66.47;;;25.17;;
17528;SDS011;8882;53.192;8.184;2022-12-13T15:33:34;80.83;;;30.37;;
17528;SDS011;8882;53.192;8.184;2022-12-13T15:38:33;66.90;;;26.07;;
17528;SDS011;8882;53.192;8.184;2022-12-13T15:41:01;77.83;;;28.40;;
17528;SDS011;8882;53.192;8.184;2022-12-13T15:43:35;63.93;;;23.30;;
17528;SDS011;8882;53.192;8.184;2022-12-13T15:46:07;59.67;;;24.10;;
17528;SDS011;8882;53.192;8.184;2022-12-13T15:48:37;59.13;;;25.23;;
17528;SDS011;8882;53.192;8.184;2022-12-13T15:53:33;73.47;;;25.30;;
17528;SDS011;8882;53.192;8.184;2022-12-13T15:55:59;68.83;;;26.53;;
17528;SDS011;8882;53.192;8.184;2022-12-13T16:01:00;64.13;;;26.37;;
17528;SDS011;8882;53.192;8.184;2022-12-13T16:03:34;70.37;;;25.47;;
17528;SDS011;8882;53.192;8.184;2022-12-13T16:06:07;69.37;;;24.57;;
17528;SDS011;8882;53.192;8.184;2022-12-13T16:08:34;63.20;;;25.93;;
17528;SDS011;8882;53.192;8.184;2022-12-13T16:11:03;76.27;;;26.80;;
17528;SDS011;8882;53.192;8.184;2022-12-13T16:13:31;68.03;;;25.07;;
17528;SDS011;8882;53.192;8.184;2022-12-13T16:16:00;69.87;;;26.47;;
17528;SDS011;8882;53.192;8.184;2022-12-13T16:18:53;69.53;;;26.73;;
17528;SDS011;8882;53.192;8.184;2022-12-13T16:21:23;75.00;;;26.33;;
17528;SDS011;8882;53.192;8.184;2022-12-13T16:23:49;75.17;;;27.07;;
17528;SDS011;8882;53.192;8.184;2022-12-13T16:26:22;82.47;;;27.47;;
17528;SDS011;8882;53.192;8.184;2022-12-13T16:28:50;76.03;;;26.87;;
17528;SDS011;8882;53.192;8.184;2022-12-13T16:31:16;79.60;;;24.87;;
17528;SDS011;8882;53.192;8.184;2022-12-13T16:33:42;84.27;;;28.87;;
17528;SDS011;8882;53.192;8.184;2022-12-13T16:36:08;95.80;;;32.90;;
17528;SDS011;8882;53.192;8.184;2022-12-13T16:38:35;69.77;;;24.57;;
17528;SDS011;8882;53.192;8.184;2022-12-13T16:41:00;70.07;;;25.97;;
17528;SDS011;8882;53.192;8.184;2022-12-13T16:43:26;82.07;;;31.13;;
17528;SDS011;8882;53.192;8.184;2022-12-13T16:45:53;97.60;;;35.30;;
17528;SDS011;8882;53.192;8.184;2022-12-13T16:48:20;102.17;;;38.60;;
17528;SDS011;8882;53.192;8.184;2022-12-13T16:50:46;90.77;;;35.97;;
17528;SDS011;8882;53.192;8.184;2022-12-13T16:53:16;93.90;;;35.40;;
17528;SDS011;8882;53.192;8.184;2022-12-13T16:55:43;87.60;;;35.13;;
17528;SDS011;8882;53.192;8.184;2022-12-13T16:58:11;92.23;;;35.50;;
17528;SDS011;8882;53.192;8.184;2022-12-13T17:00:38;87.67;;;27.33;;
17528;SDS011;8882;53.192;8.184;2022-12-13T17:03:04;79.37;;;27.03;;
17528;SDS011;8882;53.192;8.184;2022-12-13T17:05:31;69.70;;;27.93;;
17528;SDS011;8882;53.192;8.184;2022-12-13T17:07:58;92.68;;;32.10;;
17528;SDS011;8882;53.192;8.184;2022-12-13T17:10:24;75.20;;;27.90;;
17528;SDS011;8882;53.192;8.184;2022-12-13T17:12:50;81.23;;;30.03;;
17528;SDS011;8882;53.192;8.184;2022-12-13T17:15:15;77.13;;;31.37;;
17528;SDS011;8882;53.192;8.184;2022-12-13T17:17:42;81.30;;;29.43;;
17528;SDS011;8882;53.192;8.184;2022-12-13T17:20:10;77.00;;;29.73;;
17528;SDS011;8882;53.192;8.184;2022-12-13T17:22:38;75.23;;;29.90;;
17528;SDS011;8882;53.192;8.184;2022-12-13T17:25:04;68.13;;;29.20;;
17528;SDS011;8882;53.192;8.184;2022-12-13T17:27:30;74.70;;;28.60;;
17528;SDS011;8882;53.192;8.184;2022-12-13T17:29:56;71.30;;;30.00;;
17528;SDS011;8882;53.192;8.184;2022-12-13T17:32:22;70.60;;;27.73;;
17528;SDS011;8882;53.192;8.184;2022-12-13T17:34:47;68.33;;;29.17;;
17528;SDS011;8882;53.192;8.184;2022-12-13T17:37:14;73.30;;;30.43;;
17528;SDS011;8882;53.192;8.184;2022-12-13T17:39:40;74.07;;;30.70;;
17528;SDS011;8882;53.192;8.184;2022-12-13T17:42:05;77.43;;;32.07;;
17528;SDS011;8882;53.192;8.184;2022-12-13T17:44:31;73.70;;;31.27;;
17528;SDS011;8882;53.192;8.184;2022-12-13T17:46:56;84.43;;;33.70;;
17528;SDS011;8882;53.192;8.184;2022-12-13T17:49:22;82.57;;;32.60;;
17528;SDS011;8882;53.192;8.184;2022-12-13T17:51:48;80.87;;;36.20;;
17528;SDS011;8882;53.192;8.184;2022-12-13T17:54:16;84.83;;;35.63;;
17528;SDS011;8882;53.192;8.184;2022-12-13T17:56:42;84.30;;;35.97;;
17528;SDS011;8882;53.192;8.184;2022-12-13T17:59:08;77.17;;;34.87;;
17528;SDS011;8882;53.192;8.184;2022-12-13T18:01:35;77.80;;;34.07;;
17528;SDS011;8882;53.192;8.184;2022-12-13T18:04:01;78.53;;;33.60;;
17528;SDS011;8882;53.192;8.184;2022-12-13T18:06:26;75.97;;;33.33;;
17528;SDS011;8882;53.192;8.184;2022-12-13T18:08:52;82.93;;;33.77;;
17528;SDS011;8882;53.192;8.184;2022-12-13T18:11:18;73.63;;;32.43;;
17528;SDS011;8882;53.192;8.184;2022-12-13T18:13:44;73.90;;;33.43;;
17528;SDS011;8882;53.192;8.184;2022-12-13T18:16:12;79.57;;;33.97;;
17528;SDS011;8882;53.192;8.184;2022-12-13T18:18:39;70.87;;;31.77;;
17528;SDS011;8882;53.192;8.184;2022-12-13T18:21:06;61.20;;;28.73;;
17528;SDS011;8882;53.192;8.184;2022-12-13T18:23:34;56.13;;;28.73;;
17528;SDS011;8882;53.192;8.184;2022-12-13T18:26:01;59.73;;;27.60;;
17528;SDS011;8882;53.192;8.184;2022-12-13T18:28:28;54.17;;;25.57;;
17528;SDS011;8882;53.192;8.184;2022-12-13T18:31:01;56.80;;;26.43;;
17528;SDS011;8882;53.192;8.184;2022-12-13T18:33:29;53.90;;;26.40;;
17528;SDS011;8882;53.192;8.184;2022-12-13T18:35:55;50.23;;;27.57;;
17528;SDS011;8882;53.192;8.184;2022-12-13T18:38:20;82.80;;;35.87;;
17528;SDS011;8882;53.192;8.184;2022-12-13T18:40:47;74.13;;;36.43;;
17528;SDS011;8882;53.192;8.184;2022-12-13T18:43:14;66.23;;;33.67;;
17528;SDS011;8882;53.192;8.184;2022-12-13T18:45:40;68.23;;;33.67;;
17528;SDS011;8882;53.192;8.184;2022-12-13T18:48:05;61.83;;;31.60;;
17528;SDS011;8882;53.192;8.184;2022-12-13T18:50:31;60.67;;;30.53;;
17528;SDS011;8882;53.192;8.184;2022-12-13T18:52:57;60.90;;;33.60;;
17528;SDS011;8882;53.192;8.184;2022-12-13T18:55:23;59.23;;;31.90;;
17528;SDS011;8882;53.192;8.184;2022-12-13T18:57:49;62.53;;;31.07;;
17528;SDS011;8882;53.192;8.184;2022-12-13T19:00:15;51.33;;;27.27;;
17528;SDS011;8882;53.192;8.184;2022-12-13T19:02:41;51.53;;;28.33;;
17528;SDS011;8882;53.192;8.184;2022-12-13T19:05:07;58.17;;;28.00;;
17528;SDS011;8882;53.192;8.184;2022-12-13T19:07:32;51.40;;;27.37;;
17528;SDS011;8882;53.192;8.184;2022-12-13T19:09:58;58.97;;;28.80;;
17528;SDS011;8882;53.192;8.184;2022-12-13T19:12:23;55.77;;;30.93;;
17528;SDS011;8882;53.192;8.184;2022-12-13T19:14:49;56.90;;;30.07;;
17528;SDS011;8882;53.192;8.184;2022-12-13T19:17:14;57.17;;;28.40;;
17528;SDS011;8882;53.192;8.184;2022-12-13T19:19:40;54.23;;;27.23;;
17528;SDS011;8882;53.192;8.184;2022-12-13T19:22:05;59.47;;;27.63;;
17528;SDS011;8882;53.192;8.184;2022-12-13T19:24:31;54.00;;;27.70;;
17528;SDS011;8882;53.192;8.184;2022-12-13T19:26:56;55.20;;;27.70;;
17528;SDS011;8882;53.192;8.184;2022-12-13T19:29:22;53.57;;;27.07;;
17528;SDS011;8882;53.192;8.184;2022-12-13T19:31:49;53.67;;;28.67;;
17528;SDS011;8882;53.192;8.184;2022-12-13T19:34:14;51.10;;;27.97;;
17528;SDS011;8882;53.192;8.184;2022-12-13T19:36:40;59.30;;;26.70;;
17528;SDS011;8882;53.192;8.184;2022-12-13T19:39:05;55.07;;;27.77;;
17528;SDS011;8882;53.192;8.184;2022-12-13T19:41:31;58.43;;;27.03;;
17528;SDS011;8882;53.192;8.184;2022-12-13T19:43:57;48.67;;;26.17;;
17528;SDS011;8882;53.192;8.184;2022-12-13T19:46:24;48.93;;;25.33;;
17528;SDS011;8882;53.192;8.184;2022-12-13T19:48:49;48.50;;;24.70;;
17528;SDS011;8882;53.192;8.184;2022-12-13T19:51:15;56.00;;;25.77;;
17528;SDS011;8882;53.192;8.184;2022-12-13T19:53:40;53.37;;;24.83;;
17528;SDS011;8882;53.192;8.184;2022-12-13T19:56:10;47.97;;;24.77;;
17528;SDS011;8882;53.192;8.184;2022-12-13T19:58:37;48.60;;;25.00;;
17528;SDS011;8882;53.192;8.184;2022-12-13T20:01:03;49.77;;;24.33;;
17528;SDS011;8882;53.192;8.184;2022-12-13T20:03:30;51.10;;;24.57;;
17528;SDS011;8882;53.192;8.184;2022-12-13T20:05:57;49.47;;;24.70;;
17528;SDS011;8882;53.192;8.184;2022-12-13T20:08:24;49.00;;;23.37;;
17528;SDS011;8882;53.192;8.184;2022-12-13T20:10:55;45.37;;;22.80;;
17528;SDS011;8882;53.192;8.184;2022-12-13T20:13:25;48.40;;;22.80;;
17528;SDS011;8882;53.192;8.184;2022-12-13T20:15:51;59.00;;;24.40;;
17528;SDS011;8882;53.192;8.184;2022-12-13T20:18:16;50.63;;;23.33;;
17528;SDS011;8882;53.192;8.184;2022-12-13T20:20:42;47.33;;;27.20;;
17528;SDS011;8882;53.192;8.184;2022-12-13T20:23:07;51.97;;;25.10;;
17528;SDS011;8882;53.192;8.184;2022-12-13T20:25:33;46.70;;;24.70;;
17528;SDS011;8882;53.192;8.184;2022-12-13T20:27:58;50.33;;;25.60;;
17528;SDS011;8882;53.192;8.184;2022-12-13T20:30:24;54.40;;;25.77;;
17528;SDS011;8882;53.192;8.184;2022-12-13T20:32:50;50.73;;;23.67;;
17528;SDS011;8882;53.192;8.184;2022-12-13T20:35:16;52.93;;;25.27;;
17528;SDS011;8882;53.192;8.184;2022-12-13T20:37:41;45.83;;;25.03;;
17528;SDS011;8882;53.192;8.184;2022-12-13T20:40:07;56.97;;;25.43;;
17528;SDS011;8882;53.192;8.184;2022-12-13T20:42:33;54.70;;;24.83;;
17528;SDS011;8882;53.192;8.184;2022-12-13T20:44:59;41.80;;;22.27;;
17528;SDS011;8882;53.192;8.184;2022-12-13T20:47:24;47.23;;;23.73;;
17528;SDS011;8882;53.192;8.184;2022-12-13T20:49:50;47.53;;;22.63;;
17528;SDS011;8882;53.192;8.184;2022-12-13T20:52:15;43.63;;;21.77;;
17528;SDS011;8882;53.192;8.184;2022-12-13T20:54:41;41.73;;;21.83;;
17528;SDS011;8882;53.192;8.184;2022-12-13T20:57:07;48.43;;;24.70;;
17528;SDS011;8882;53.192;8.184;2022-12-13T20:59:33;49.60;;;23.70;;
17528;SDS011;8882;53.192;8.184;2022-12-13T21:01:58;47.10;;;22.43;;
17528;SDS011;8882;53.192;8.184;2022-12-13T21:04:23;43.87;;;22.40;;
17528;SDS011;8882;53.192;8.184;2022-12-13T21:06:49;44.07;;;21.77;;
17528;SDS011;8882;53.192;8.184;2022-12-13T21:09:15;39.20;;;20.70;;
17528;SDS011;8882;53.192;8.184;2022-12-13T21:11:44;44.93;;;22.90;;
17528;SDS011;8882;53.192;8.184;2022-12-13T21:16:48;41.63;;;21.30;;
17528;SDS011;8882;53.192;8.184;2022-12-13T21:19:15;39.53;;;21.17;;
17528;SDS011;8882;53.192;8.184;2022-12-13T21:21:43;40.57;;;22.33;;
17528;SDS011;8882;53.192;8.184;2022-12-13T21:24:10;42.10;;;21.13;;
17528;SDS011;8882;53.192;8.184;2022-12-13T21:26:38;44.67;;;23.57;;
17528;SDS011;8882;53.192;8.184;2022-12-13T21:29:05;45.00;;;22.10;;
17528;SDS011;8882;53.192;8.184;2022-12-13T21:31:31;47.03;;;22.50;;
17528;SDS011;8882;53.192;8.184;2022-12-13T21:33:58;44.37;;;22.17;;
17528;SDS011;8882;53.192;8.184;2022-12-13T21:36:26;44.63;;;22.00;;
17528;SDS011;8882;53.192;8.184;2022-12-13T21:38:53;44.17;;;21.53;;
17528;SDS011;8882;53.192;8.184;2022-12-13T21:41:21;47.43;;;23.07;;
17528;SDS011;8882;53.192;8.184;2022-12-13T21:43:47;41.60;;;22.13;;
17528;SDS011;8882;53.192;8.184;2022-12-13T21:46:14;46.10;;;22.73;;
17528;SDS011;8882;53.192;8.184;2022-12-13T21:48:41;44.97;;;22.63;;
17528;SDS011;8882;53.192;8.184;2022-12-13T21:51:09;42.97;;;21.73;;
17528;SDS011;8882;53.192;8.184;2022-12-13T21:53:37;37.73;;;20.63;;
17528;SDS011;8882;53.192;8.184;2022-12-13T21:56:06;39.80;;;20.03;;
17528;SDS011;8882;53.192;8.184;2022-12-13T21:58:51;47.33;;;22.73;;
